sensor_id;sensor_type;location;lat;lon;timestamp;pressure;altitude;pressure_sealevel;temperature;humidity
64602;BME280;68371;42.630;23.192;2024-01-15T00:01:00;91475.09;;;-5.45;86.71
64602;BME280;68371;42.630;23.192;2024-01-15T00:03:26;91674.84;;;-4.18;87.53
64602;BME280;68371;42.630;23.192;2024-01-15T00:05:53;91650.56;;;-4.36;88.20
64602;BME280;68371;42.630;23.192;2024-01-15T00:08:20;91652.34;;;-4.32;88.94
64602;BME280;68371;42.630;23.192;2024-01-15T00:10:47;91666.09;;;-4.07;88.61
64602;BME280;68371;42.630;23.192;2024-01-15T00:13:13;91657.31;;;-3.91;88.50
64602;BME280;68371;42.630;23.192;2024-01-15T00:15:42;91656.56;;;-3.96;88.03
64602;BME280;68371;42.630;23.192;2024-01-15T00:18:10;91658.63;;;-3.98;87.99
64602;BME280;68371;42.630;23.192;2024-01-15T00:20:37;91665.78;;;-3.95;87.37
64602;BME280;68371;42.630;23.192;2024-01-15T00:23:03;91671.94;;;-3.96;87.56
64602;BME280;68371;42.630;23.192;2024-01-15T00:25:30;91579.34;;;-4.55;87.21
64602;BME280;68371;42.630;23.192;2024-01-15T00:27:57;91517.72;;;-4.94;87.24
64602;BME280;68371;42.630;23.192;2024-01-15T00:30:24;91668.88;;;-4.04;87.27
64602;BME280;68371;42.630;23.192;2024-01-15T00:32:52;91585.25;;;-4.65;87.57
64602;BME280;68371;42.630;23.192;2024-01-15T00:35:18;91673.22;;;-3.94;88.23
64602;BME280;68371;42.630;23.192;2024-01-15T00:37:45;91603.88;;;-4.33;87.30
64602;BME280;68371;42.630;23.192;2024-01-15T00:40:12;91671.44;;;-3.93;87.21
64602;BME280;68371;42.630;23.192;2024-01-15T00:42:39;91673.25;;;-3.99;86.77
64602;BME280;68371;42.630;23.192;2024-01-15T00:45:07;91581.41;;;-4.57;86.42
64602;BME280;68371;42.630;23.192;2024-01-15T00:47:34;91623.06;;;-4.20;86.36
64602;BME280;68371;42.630;23.192;2024-01-15T00:50:02;91665.72;;;-3.80;86.84
64602;BME280;68371;42.630;23.192;2024-01-15T00:52:29;91665.97;;;-3.76;85.80
64602;BME280;68371;42.630;23.192;2024-01-15T00:54:55;91429.50;;;-5.33;85.24
64602;BME280;68371;42.630;23.192;2024-01-15T00:57:22;91662.66;;;-3.82;85.03
64602;BME280;68371;42.630;23.192;2024-01-15T00:59:48;91541.94;;;-4.61;84.61
64602;BME280;68371;42.630;23.192;2024-01-15T01:02:15;91661.38;;;-3.85;84.64
64602;BME280;68371;42.630;23.192;2024-01-15T01:04:42;91658.00;;;-3.80;84.51
64602;BME280;68371;42.630;23.192;2024-01-15T01:07:10;91654.38;;;-3.74;83.93
64602;BME280;68371;42.630;23.192;2024-01-15T01:09:38;91618.88;;;-4.01;84.06
64602;BME280;68371;42.630;23.192;2024-01-15T01:12:05;91655.66;;;-3.71;83.83
64602;BME280;68371;42.630;23.192;2024-01-15T01:14:32;91531.44;;;-4.59;83.80
64602;BME280;68371;42.630;23.192;2024-01-15T01:16:59;91607.81;;;-3.96;83.09
64602;BME280;68371;42.630;23.192;2024-01-15T01:19:26;91656.13;;;-3.64;82.56
64602;BME280;68371;42.630;23.192;2024-01-15T01:21:53;91652.56;;;-3.68;82.66
64602;BME280;68371;42.630;23.192;2024-01-15T01:24:21;91650.06;;;-3.84;83.57
64602;BME280;68371;42.630;23.192;2024-01-15T01:26:47;91645.16;;;-3.75;82.80
64602;BME280;68371;42.630;23.192;2024-01-15T01:29:14;91636.22;;;-3.83;82.85
64602;BME280;68371;42.630;23.192;2024-01-15T01:31:43;91612.19;;;-3.97;82.59
64602;BME280;68371;42.630;23.192;2024-01-15T01:34:13;91640.31;;;-3.82;83.02
64602;BME280;68371;42.630;23.192;2024-01-15T01:36:41;91641.16;;;-3.91;82.99
64602;BME280;68371;42.630;23.192;2024-01-15T01:39:09;91632.72;;;-3.97;83.86
64602;BME280;68371;42.630;23.192;2024-01-15T01:41:38;91547.06;;;-4.61;84.96
64602;BME280;68371;42.630;23.192;2024-01-15T01:44:05;91606.69;;;-4.30;84.88
64602;BME280;68371;42.630;23.192;2024-01-15T01:46:32;91626.03;;;-3.98;85.07
64602;BME280;68371;42.630;23.192;2024-01-15T01:49:00;91620.44;;;-4.05;84.72
64602;BME280;68371;42.630;23.192;2024-01-15T01:51:31;91626.34;;;-4.10;84.88
64602;BME280;68371;42.630;23.192;2024-01-15T01:53:58;91613.78;;;-4.11;84.31
64602;BME280;68371;42.630;23.192;2024-01-15T01:56:25;91624.25;;;-4.03;84.31
64602;BME280;68371;42.630;23.192;2024-01-15T01:58:54;91605.59;;;-4.18;85.20
64602;BME280;68371;42.630;23.192;2024-01-15T02:01:21;91579.00;;;-4.33;84.41
64602;BME280;68371;42.630;23.192;2024-01-15T02:03:48;91627.81;;;-3.93;84.47
64602;BME280;68371;42.630;23.192;2024-01-15T02:06:15;91581.75;;;-4.19;84.41
64602;BME280;68371;42.630;23.192;2024-01-15T02:08:43;91574.00;;;-4.09;84.25
64602;BME280;68371;42.630;23.192;2024-01-15T02:11:10;91575.03;;;-4.10;84.67
64602;BME280;68371;42.630;23.192;2024-01-15T02:13:39;91598.75;;;-3.84;83.91
64602;BME280;68371;42.630;23.192;2024-01-15T02:16:07;91603.03;;;-3.69;82.51
64602;BME280;68371;42.630;23.192;2024-01-15T02:18:40;91534.97;;;-4.06;83.02
64602;BME280;68371;42.630;23.192;2024-01-15T02:21:08;91565.78;;;-3.66;82.41
64602;BME280;68371;42.630;23.192;2024-01-15T02:23:39;91552.47;;;-3.73;82.66
64602;BME280;68371;42.630;23.192;2024-01-15T02:26:06;91554.84;;;-3.82;83.54
64602;BME280;68371;42.630;23.192;2024-01-15T02:28:34;91469.72;;;-4.24;82.47
64602;BME280;68371;42.630;23.192;2024-01-15T02:31:00;91550.19;;;-3.75;81.99
64602;BME280;68371;42.630;23.192;2024-01-15T02:33:27;91499.91;;;-4.15;82.06
64602;BME280;68371;42.630;23.192;2024-01-15T02:35:54;91480.38;;;-4.51;82.13
64602;BME280;68371;42.630;23.192;2024-01-15T02:38:22;91548.69;;;-3.81;82.51
64602;BME280;68371;42.630;23.192;2024-01-15T02:40:50;91550.97;;;-3.79;82.36
64602;BME280;68371;42.630;23.192;2024-01-15T02:43:17;91549.47;;;-3.80;82.64
64602;BME280;68371;42.630;23.192;2024-01-15T02:45:46;91546.41;;;-3.88;82.70
64602;BME280;68371;42.630;23.192;2024-01-15T02:48:14;91541.00;;;-3.81;82.69
64602;BME280;68371;42.630;23.192;2024-01-15T02:50:42;91548.25;;;-3.59;81.43
64602;BME280;68371;42.630;23.192;2024-01-15T02:53:09;91548.72;;;-3.52;82.47
64602;BME280;68371;42.630;23.192;2024-01-15T02:55:37;91552.69;;;-3.35;80.19
64602;BME280;68371;42.630;23.192;2024-01-15T02:58:05;91543.81;;;-3.19;79.74
64602;BME280;68371;42.630;23.192;2024-01-15T03:00:32;91545.94;;;-2.97;80.40
64602;BME280;68371;42.630;23.192;2024-01-15T03:02:59;91224.91;;;-4.95;80.67
64602;BME280;68371;42.630;23.192;2024-01-15T03:05:26;91548.88;;;-2.85;80.43
64602;BME280;68371;42.630;23.192;2024-01-15T03:07:53;91541.78;;;-2.93;81.11
64602;BME280;68371;42.630;23.192;2024-01-15T03:10:22;91428.69;;;-3.65;81.99
64602;BME280;68371;42.630;23.192;2024-01-15T03:12:49;91527.06;;;-2.87;81.82
64602;BME280;68371;42.630;23.192;2024-01-15T03:15:18;91479.94;;;-3.26;81.13
64602;BME280;68371;42.630;23.192;2024-01-15T03:17:44;91517.22;;;-2.80;81.35
64602;BME280;68371;42.630;23.192;2024-01-15T03:20:12;91513.06;;;-2.76;80.80
64602;BME280;68371;42.630;23.192;2024-01-15T03:22:39;91501.63;;;-2.89;81.08
64602;BME280;68371;42.630;23.192;2024-01-15T03:25:06;91490.09;;;-2.91;81.42
64602;BME280;68371;42.630;23.192;2024-01-15T03:27:33;91495.34;;;-2.77;82.18
64602;BME280;68371;42.630;23.192;2024-01-15T03:30:00;91408.72;;;-3.44;82.26
64602;BME280;68371;42.630;23.192;2024-01-15T03:32:30;91464.63;;;-3.12;82.47
64602;BME280;68371;42.630;23.192;2024-01-15T03:34:56;91346.63;;;-3.99;82.18
64602;BME280;68371;42.630;23.192;2024-01-15T03:37:23;91523.66;;;-2.83;80.89
64602;BME280;68371;42.630;23.192;2024-01-15T03:39:52;91483.59;;;-3.08;81.58
64602;BME280;68371;42.630;23.192;2024-01-15T03:42:18;91478.88;;;-3.00;81.50
64602;BME280;68371;42.630;23.192;2024-01-15T03:44:45;91499.22;;;-2.80;81.59
64602;BME280;68371;42.630;23.192;2024-01-15T03:47:12;91497.06;;;-2.92;81.80
64602;BME280;68371;42.630;23.192;2024-01-15T03:49:42;91443.41;;;-3.23;81.65
64602;BME280;68371;42.630;23.192;2024-01-15T03:52:09;91494.06;;;-2.80;81.04
64602;BME280;68371;42.630;23.192;2024-01-15T03:54:35;91423.41;;;-3.26;81.22
64602;BME280;68371;42.630;23.192;2024-01-15T03:57:03;91487.41;;;-2.81;81.29
64602;BME280;68371;42.630;23.192;2024-01-15T03:59:30;91478.66;;;-2.80;81.18
64602;BME280;68371;42.630;23.192;2024-01-15T04:01:57;91464.06;;;-2.85;81.90
64602;BME280;68371;42.630;23.192;2024-01-15T04:04:24;91473.47;;;-2.99;81.45
64602;BME280;68371;42.630;23.192;2024-01-15T04:06:52;91467.13;;;-3.07;82.54
64602;BME280;68371;42.630;23.192;2024-01-15T04:09:19;91459.09;;;-3.00;82.08
64602;BME280;68371;42.630;23.192;2024-01-15T04:11:45;91283.78;;;-4.26;82.52
64602;BME280;68371;42.630;23.192;2024-01-15T04:14:12;91458.44;;;-3.11;82.56
64602;BME280;68371;42.630;23.192;2024-01-15T04:16:39;91138.97;;;-5.11;82.00
64602;BME280;68371;42.630;23.192;2024-01-15T04:19:07;91456.69;;;-2.91;82.02
64602;BME280;68371;42.630;23.192;2024-01-15T04:21:34;91450.09;;;-2.78;80.79
64602;BME280;68371;42.630;23.192;2024-01-15T04:24:03;91278.94;;;-3.79;79.18
64602;BME280;68371;42.630;23.192;2024-01-15T04:26:29;91452.28;;;-2.48;77.94
64602;BME280;68371;42.630;23.192;2024-01-15T04:28:56;91419.69;;;-2.52;76.76
64602;BME280;68371;42.630;23.192;2024-01-15T04:31:24;91440.94;;;-2.28;76.81
64602;BME280;68371;42.630;23.192;2024-01-15T04:33:52;91461.06;;;-2.11;78.35
64602;BME280;68371;42.630;23.192;2024-01-15T04:36:19;91319.84;;;-3.02;78.10
64602;BME280;68371;42.630;23.192;2024-01-15T04:38:45;91463.13;;;-1.94;77.62
64602;BME280;68371;42.630;23.192;2024-01-15T04:41:16;91472.81;;;-2.05;78.01
64602;BME280;68371;42.630;23.192;2024-01-15T04:43:44;91426.63;;;-2.34;77.49
64602;BME280;68371;42.630;23.192;2024-01-15T04:46:10;91308.38;;;-3.10;77.23
64602;BME280;68371;42.630;23.192;2024-01-15T04:48:37;91379.44;;;-2.81;77.78
64602;BME280;68371;42.630;23.192;2024-01-15T04:51:04;91469.59;;;-2.15;77.94
64602;BME280;68371;42.630;23.192;2024-01-15T04:53:32;91348.75;;;-2.91;75.07
64602;BME280;68371;42.630;23.192;2024-01-15T04:55:59;91473.91;;;-1.92;75.22
64602;BME280;68371;42.630;23.192;2024-01-15T04:58:27;91472.66;;;-1.94;73.59
64602;BME280;68371;42.630;23.192;2024-01-15T05:00:54;91475.44;;;-1.58;74.61
64602;BME280;68371;42.630;23.192;2024-01-15T05:03:21;91339.59;;;-2.27;71.98
64602;BME280;68371;42.630;23.192;2024-01-15T05:05:48;91454.16;;;-1.64;71.81
64602;BME280;68371;42.630;23.192;2024-01-15T05:08:14;91463.81;;;-1.55;71.80
64602;BME280;68371;42.630;23.192;2024-01-15T05:10:41;91304.53;;;-2.74;72.47
64602;BME280;68371;42.630;23.192;2024-01-15T05:13:08;91409.44;;;-2.00;72.57
64602;BME280;68371;42.630;23.192;2024-01-15T05:15:36;91470.66;;;-1.51;71.71
64602;BME280;68371;42.630;23.192;2024-01-15T05:18:03;91464.09;;;-1.43;71.07
64602;BME280;68371;42.630;23.192;2024-01-15T05:20:30;91459.91;;;-1.39;70.74
64602;BME280;68371;42.630;23.192;2024-01-15T05:22:56;91450.78;;;-1.31;70.37
64602;BME280;68371;42.630;23.192;2024-01-15T05:25:23;91421.16;;;-1.34;69.41
64602;BME280;68371;42.630;23.192;2024-01-15T05:27:50;91449.16;;;-1.13;69.06
64602;BME280;68371;42.630;23.192;2024-01-15T05:30:17;91414.13;;;-1.14;67.94
64602;BME280;68371;42.630;23.192;2024-01-15T05:32:45;91431.09;;;-0.86;68.30
64602;BME280;68371;42.630;23.192;2024-01-15T05:35:12;91403.72;;;-1.09;67.78
64602;BME280;68371;42.630;23.192;2024-01-15T05:37:43;91413.44;;;-0.78;67.16
64602;BME280;68371;42.630;23.192;2024-01-15T05:40:12;91417.78;;;-0.65;67.29
64602;BME280;68371;42.630;23.192;2024-01-15T05:42:39;91227.59;;;-1.83;66.70
64602;BME280;68371;42.630;23.192;2024-01-15T05:45:06;91408.50;;;-0.38;67.66
64602;BME280;68371;42.630;23.192;2024-01-15T05:47:33;91407.91;;;-0.49;68.60
64602;BME280;68371;42.630;23.192;2024-01-15T05:50:02;91417.28;;;-0.53;68.02
64602;BME280;68371;42.630;23.192;2024-01-15T05:52:30;91426.88;;;-0.54;68.59
64602;BME280;68371;42.630;23.192;2024-01-15T05:54:57;91433.47;;;-0.62;66.79
64602;BME280;68371;42.630;23.192;2024-01-15T05:57:24;91436.97;;;-0.44;66.23
64602;BME280;68371;42.630;23.192;2024-01-15T05:59:51;91426.34;;;-0.28;65.56
64602;BME280;68371;42.630;23.192;2024-01-15T06:02:17;91418.97;;;-0.35;65.88
64602;BME280;68371;42.630;23.192;2024-01-15T06:04:44;91412.78;;;-0.34;65.70
64602;BME280;68371;42.630;23.192;2024-01-15T06:07:13;91362.00;;;-0.61;64.53
64602;BME280;68371;42.630;23.192;2024-01-15T06:09:40;91418.03;;;-0.16;64.40
64602;BME280;68371;42.630;23.192;2024-01-15T06:12:08;91422.81;;;-0.10;64.72
64602;BME280;68371;42.630;23.192;2024-01-15T06:14:34;91420.72;;;-0.08;64.30
64602;BME280;68371;42.630;23.192;2024-01-15T06:17:01;91431.16;;;0.10;63.20
64602;BME280;68371;42.630;23.192;2024-01-15T06:19:28;91423.06;;;0.03;62.67
64602;BME280;68371;42.630;23.192;2024-01-15T06:21:55;91424.47;;;0.09;62.53
64602;BME280;68371;42.630;23.192;2024-01-15T06:24:23;91423.16;;;0.20;62.70
64602;BME280;68371;42.630;23.192;2024-01-15T06:26:50;91418.59;;;0.17;62.13
64602;BME280;68371;42.630;23.192;2024-01-15T06:29:18;91419.72;;;0.25;62.15
64602;BME280;68371;42.630;23.192;2024-01-15T06:31:45;91382.22;;;0.05;62.26
64602;BME280;68371;42.630;23.192;2024-01-15T06:34:11;91385.81;;;0.26;61.54
64602;BME280;68371;42.630;23.192;2024-01-15T06:36:38;91346.84;;;0.14;61.28
64602;BME280;68371;42.630;23.192;2024-01-15T06:39:05;91427.44;;;0.47;61.87
64602;BME280;68371;42.630;23.192;2024-01-15T06:41:33;91362.81;;;0.16;60.95
64602;BME280;68371;42.630;23.192;2024-01-15T06:44:00;91368.38;;;0.32;60.50
64602;BME280;68371;42.630;23.192;2024-01-15T06:46:27;91356.09;;;0.37;60.48
64602;BME280;68371;42.630;23.192;2024-01-15T06:48:53;91293.06;;;0.07;60.68
64602;BME280;68371;42.630;23.192;2024-01-15T06:51:20;91404.19;;;0.87;60.40
64602;BME280;68371;42.630;23.192;2024-01-15T06:53:50;91354.72;;;0.71;60.32
64602;BME280;68371;42.630;23.192;2024-01-15T06:56:16;91365.66;;;0.77;60.57
64602;BME280;68371;42.630;23.192;2024-01-15T06:58:45;91404.59;;;1.12;59.89
64602;BME280;68371;42.630;23.192;2024-01-15T07:01:12;91038.16;;;-1.38;60.32
64602;BME280;68371;42.630;23.192;2024-01-15T07:03:39;91415.41;;;1.23;60.04
64602;BME280;68371;42.630;23.192;2024-01-15T07:06:05;91426.66;;;1.18;58.73
64602;BME280;68371;42.630;23.192;2024-01-15T07:08:32;91432.31;;;1.29;58.74
64602;BME280;68371;42.630;23.192;2024-01-15T07:10:59;91424.09;;;1.35;57.54
64602;BME280;68371;42.630;23.192;2024-01-15T07:13:26;91421.69;;;1.48;58.06
64602;BME280;68371;42.630;23.192;2024-01-15T07:15:54;91266.03;;;0.53;58.15
64602;BME280;68371;42.630;23.192;2024-01-15T07:18:21;91413.94;;;1.56;58.00
64602;BME280;68371;42.630;23.192;2024-01-15T07:20:50;91413.66;;;1.67;57.49
64602;BME280;68371;42.630;23.192;2024-01-15T07:23:16;91416.25;;;1.75;57.30
64602;BME280;68371;42.630;23.192;2024-01-15T07:25:43;91409.84;;;1.73;57.42
64602;BME280;68371;42.630;23.192;2024-01-15T07:28:10;91325.00;;;1.35;55.01
64602;BME280;68371;42.630;23.192;2024-01-15T07:30:37;91294.09;;;1.30;55.79
64602;BME280;68371;42.630;23.192;2024-01-15T07:33:06;91399.91;;;2.18;55.51
64602;BME280;68371;42.630;23.192;2024-01-15T07:35:32;91356.69;;;1.93;54.71
64602;BME280;68371;42.630;23.192;2024-01-15T07:37:59;91410.66;;;2.55;53.69
64602;BME280;68371;42.630;23.192;2024-01-15T07:40:26;91408.06;;;2.64;54.43
64602;BME280;68371;42.630;23.192;2024-01-15T07:42:52;91401.25;;;3.28;52.17
64602;BME280;68371;42.630;23.192;2024-01-15T07:45:20;91370.41;;;2.96;52.74
64602;BME280;68371;42.630;23.192;2024-01-15T07:47:47;91277.13;;;2.40;54.78
64602;BME280;68371;42.630;23.192;2024-01-15T07:50:16;91395.81;;;3.41;54.89
64602;BME280;68371;42.630;23.192;2024-01-15T07:52:43;91387.66;;;3.52;55.44
64602;BME280;68371;42.630;23.192;2024-01-15T07:55:10;91351.78;;;3.24;54.88
64602;BME280;68371;42.630;23.192;2024-01-15T07:57:38;91395.81;;;3.71;54.24
64602;BME280;68371;42.630;23.192;2024-01-15T08:00:06;91396.88;;;3.70;54.62
64602;BME280;68371;42.630;23.192;2024-01-15T08:02:34;91398.25;;;3.68;53.90
64602;BME280;68371;42.630;23.192;2024-01-15T08:05:01;91384.84;;;3.66;55.00
64602;BME280;68371;42.630;23.192;2024-01-15T08:07:30;91397.75;;;3.74;57.24
64602;BME280;68371;42.630;23.192;2024-01-15T08:09:56;91320.47;;;3.29;59.27
64602;BME280;68371;42.630;23.192;2024-01-15T08:12:23;91397.25;;;4.02;58.22
64602;BME280;68371;42.630;23.192;2024-01-15T08:14:52;91352.91;;;3.65;58.05
64602;BME280;68371;42.630;23.192;2024-01-15T08:17:22;91222.13;;;2.86;58.02
64602;BME280;68371;42.630;23.192;2024-01-15T08:19:49;91404.16;;;4.31;57.36
64602;BME280;68371;42.630;23.192;2024-01-15T08:22:17;91407.34;;;4.37;57.61
64602;BME280;68371;42.630;23.192;2024-01-15T08:24:45;91404.22;;;4.44;56.77
64602;BME280;68371;42.630;23.192;2024-01-15T08:27:12;91374.16;;;4.34;56.63
64602;BME280;68371;42.630;23.192;2024-01-15T08:29:39;91396.13;;;4.57;56.82
64602;BME280;68371;42.630;23.192;2024-01-15T08:32:06;91388.44;;;4.61;56.41
64602;BME280;68371;42.630;23.192;2024-01-15T08:34:32;91391.47;;;4.63;57.27
64602;BME280;68371;42.630;23.192;2024-01-15T08:36:59;91384.13;;;4.77;56.08
64602;BME280;68371;42.630;23.192;2024-01-15T08:39:27;91381.84;;;4.64;56.28
64602;BME280;68371;42.630;23.192;2024-01-15T08:41:55;91251.44;;;3.83;55.89
64602;BME280;68371;42.630;23.192;2024-01-15T08:44:23;91399.00;;;4.77;55.63
64602;BME280;68371;42.630;23.192;2024-01-15T08:46:50;91393.16;;;4.92;56.37
64602;BME280;68371;42.630;23.192;2024-01-15T08:49:16;91389.66;;;4.88;55.77
64602;BME280;68371;42.630;23.192;2024-01-15T08:51:43;91389.34;;;4.90;55.93
64602;BME280;68371;42.630;23.192;2024-01-15T08:54:10;91393.38;;;4.87;56.00
64602;BME280;68371;42.630;23.192;2024-01-15T08:56:37;91247.06;;;3.95;56.57
64602;BME280;68371;42.630;23.192;2024-01-15T08:59:06;91381.88;;;5.00;56.80
64602;BME280;68371;42.630;23.192;2024-01-15T09:01:33;91377.78;;;5.12;56.60
64602;BME280;68371;42.630;23.192;2024-01-15T09:04:00;91379.69;;;5.15;56.55
64602;BME280;68371;42.630;23.192;2024-01-15T09:06:27;91312.34;;;4.76;56.78
64602;BME280;68371;42.630;23.192;2024-01-15T09:08:54;91351.94;;;5.07;57.21
64602;BME280;68371;42.630;23.192;2024-01-15T09:11:21;91346.72;;;5.07;56.23
64602;BME280;68371;42.630;23.192;2024-01-15T09:13:47;91301.72;;;4.57;57.10
64602;BME280;68371;42.630;23.192;2024-01-15T09:16:15;91283.94;;;4.47;57.11
64602;BME280;68371;42.630;23.192;2024-01-15T09:18:42;91315.63;;;4.86;57.66
64602;BME280;68371;42.630;23.192;2024-01-15T09:21:09;91314.56;;;4.87;58.20
64602;BME280;68371;42.630;23.192;2024-01-15T09:23:35;91075.94;;;3.36;57.09
64602;BME280;68371;42.630;23.192;2024-01-15T09:26:02;91268.91;;;4.77;56.85
64602;BME280;68371;42.630;23.192;2024-01-15T09:28:29;91338.50;;;5.29;57.82
64602;BME280;68371;42.630;23.192;2024-01-15T09:30:56;91309.22;;;5.08;57.09
64602;BME280;68371;42.630;23.192;2024-01-15T09:33:25;91346.94;;;5.26;56.58
64602;BME280;68371;42.630;23.192;2024-01-15T09:35:52;91191.94;;;4.14;56.90
64602;BME280;68371;42.630;23.192;2024-01-15T09:38:19;91327.44;;;5.08;57.07
64602;BME280;68371;42.630;23.192;2024-01-15T09:40:46;91329.59;;;5.06;57.65
64602;BME280;68371;42.630;23.192;2024-01-15T09:43:14;91305.31;;;5.14;56.69
64602;BME280;68371;42.630;23.192;2024-01-15T09:45:41;91299.09;;;5.18;56.29
64602;BME280;68371;42.630;23.192;2024-01-15T09:48:09;91287.38;;;5.25;56.86
64602;BME280;68371;42.630;23.192;2024-01-15T09:50:37;91278.59;;;5.17;57.12
64602;BME280;68371;42.630;23.192;2024-01-15T09:53:05;91278.50;;;5.26;57.05
64602;BME280;68371;42.630;23.192;2024-01-15T09:55:32;91265.91;;;5.28;57.49
64602;BME280;68371;42.630;23.192;2024-01-15T09:58:00;91250.63;;;5.14;59.02
64602;BME280;68371;42.630;23.192;2024-01-15T10:00:28;91266.22;;;5.26;58.80
64602;BME280;68371;42.630;23.192;2024-01-15T10:02:56;91263.19;;;5.24;57.98
64602;BME280;68371;42.630;23.192;2024-01-15T10:05:23;91269.91;;;5.37;58.99
64602;BME280;68371;42.630;23.192;2024-01-15T10:07:51;91249.06;;;5.37;59.38
64602;BME280;68371;42.630;23.192;2024-01-15T10:10:20;91258.50;;;5.42;58.68
64602;BME280;68371;42.630;23.192;2024-01-15T10:12:47;91222.25;;;5.37;58.77
64602;BME280;68371;42.630;23.192;2024-01-15T10:15:14;91251.81;;;5.57;59.28
64602;BME280;68371;42.630;23.192;2024-01-15T10:17:42;91241.50;;;5.60;59.02
64602;BME280;68371;42.630;23.192;2024-01-15T10:20:10;91251.34;;;5.67;59.57
64602;BME280;68371;42.630;23.192;2024-01-15T10:22:40;91239.25;;;5.75;59.51
64602;BME280;68371;42.630;23.192;2024-01-15T10:25:11;91231.34;;;5.71;59.56
64602;BME280;68371;42.630;23.192;2024-01-15T10:27:39;91218.19;;;5.80;59.26
64602;BME280;68371;42.630;23.192;2024-01-15T10:30:07;91231.38;;;5.87;58.94
64602;BME280;68371;42.630;23.192;2024-01-15T10:32:35;91222.22;;;5.93;58.78
64602;BME280;68371;42.630;23.192;2024-01-15T10:35:03;91238.97;;;5.92;58.49
64602;BME280;68371;42.630;23.192;2024-01-15T10:37:33;91239.72;;;5.93;60.61
64602;BME280;68371;42.630;23.192;2024-01-15T10:40:01;91237.31;;;6.00;59.67
64602;BME280;68371;42.630;23.192;2024-01-15T10:42:31;91139.84;;;5.45;60.15
64602;BME280;68371;42.630;23.192;2024-01-15T10:44:58;91228.09;;;6.18;59.12
64602;BME280;68371;42.630;23.192;2024-01-15T10:47:25;91167.94;;;5.95;58.84
64602;BME280;68371;42.630;23.192;2024-01-15T10:49:53;91182.81;;;5.95;57.52
64602;BME280;68371;42.630;23.192;2024-01-15T10:52:20;91214.63;;;6.16;57.58
64602;BME280;68371;42.630;23.192;2024-01-15T10:54:48;91208.56;;;6.28;56.41
64602;BME280;68371;42.630;23.192;2024-01-15T10:57:16;91198.06;;;6.25;56.75
64602;BME280;68371;42.630;23.192;2024-01-15T10:59:44;91203.00;;;6.30;56.38
64602;BME280;68371;42.630;23.192;2024-01-15T11:02:12;91187.88;;;6.19;56.12
64602;BME280;68371;42.630;23.192;2024-01-15T11:04:40;91166.97;;;5.88;56.14
64602;BME280;68371;42.630;23.192;2024-01-15T11:07:07;91196.84;;;5.90;56.85
64602;BME280;68371;42.630;23.192;2024-01-15T11:09:36;91193.72;;;5.85;57.36
64602;BME280;68371;42.630;23.192;2024-01-15T11:12:07;91187.75;;;5.84;56.88
64602;BME280;68371;42.630;23.192;2024-01-15T11:14:38;91191.19;;;5.88;57.13
64602;BME280;68371;42.630;23.192;2024-01-15T11:17:07;91181.09;;;5.87;57.66
64602;BME280;68371;42.630;23.192;2024-01-15T11:19:38;91164.25;;;5.96;56.54
64602;BME280;68371;42.630;23.192;2024-01-15T11:22:09;91123.72;;;5.55;57.12
64602;BME280;68371;42.630;23.192;2024-01-15T11:24:38;91178.78;;;5.97;56.47
64602;BME280;68371;42.630;23.192;2024-01-15T11:27:06;91163.69;;;5.91;56.54
64602;BME280;68371;42.630;23.192;2024-01-15T11:29:33;91162.72;;;5.95;56.43
64602;BME280;68371;42.630;23.192;2024-01-15T11:32:04;91160.94;;;5.99;55.73
64602;BME280;68371;42.630;23.192;2024-01-15T11:34:55;91166.59;;;6.01;56.49
64602;BME280;68371;42.630;23.192;2024-01-15T11:37:25;91169.72;;;6.07;55.58
64602;BME280;68371;42.630;23.192;2024-01-15T11:39:53;91162.53;;;6.04;56.62
64602;BME280;68371;42.630;23.192;2024-01-15T11:42:21;91159.78;;;6.13;56.36
64602;BME280;68371;42.630;23.192;2024-01-15T11:44:49;91149.78;;;5.99;56.09
64602;BME280;68371;42.630;23.192;2024-01-15T11:47:15;91157.19;;;6.13;57.11
64602;BME280;68371;42.630;23.192;2024-01-15T11:50:03;91147.91;;;6.15;56.20
64602;BME280;68371;42.630;23.192;2024-01-15T11:52:33;91109.56;;;5.84;56.49
64602;BME280;68371;42.630;23.192;2024-01-15T11:55:11;91141.78;;;6.08;56.12
64602;BME280;68371;42.630;23.192;2024-01-15T11:57:45;91145.06;;;6.05;56.36
64602;BME280;68371;42.630;23.192;2024-01-15T12:00:13;91138.75;;;6.06;56.50
64602;BME280;68371;42.630;23.192;2024-01-15T12:02:41;91103.56;;;5.68;56.80
64602;BME280;68371;42.630;23.192;2024-01-15T12:05:11;91126.72;;;6.01;56.84
64602;BME280;68371;42.630;23.192;2024-01-15T12:07:39;91135.91;;;5.95;57.33
64602;BME280;68371;42.630;23.192;2024-01-15T12:10:09;91115.00;;;5.79;56.73
64602;BME280;68371;42.630;23.192;2024-01-15T12:12:46;91139.03;;;6.00;57.16
64602;BME280;68371;42.630;23.192;2024-01-15T12:15:15;91075.06;;;5.43;57.77
64602;BME280;68371;42.630;23.192;2024-01-15T12:17:42;91137.66;;;6.07;57.54
64602;BME280;68371;42.630;23.192;2024-01-15T12:20:11;91032.13;;;5.37;58.17
64602;BME280;68371;42.630;23.192;2024-01-15T12:22:38;91121.94;;;6.03;57.92
64602;BME280;68371;42.630;23.192;2024-01-15T12:25:05;91126.72;;;6.01;58.23
64602;BME280;68371;42.630;23.192;2024-01-15T12:27:32;91130.19;;;6.05;58.11
64602;BME280;68371;42.630;23.192;2024-01-15T12:30:00;91123.63;;;6.11;58.03
64602;BME280;68371;42.630;23.192;2024-01-15T12:32:29;91068.09;;;5.79;57.81
64602;BME280;68371;42.630;23.192;2024-01-15T12:34:56;91121.59;;;6.20;57.82
64602;BME280;68371;42.630;23.192;2024-01-15T12:37:25;91115.63;;;6.04;57.96
64602;BME280;68371;42.630;23.192;2024-01-15T12:39:52;91104.19;;;6.09;59.89
64602;BME280;68371;42.630;23.192;2024-01-15T12:42:21;91114.97;;;6.07;59.00
64602;BME280;68371;42.630;23.192;2024-01-15T12:44:47;90803.22;;;4.01;59.88
64602;BME280;68371;42.630;23.192;2024-01-15T12:47:13;91117.75;;;6.14;59.77
64602;BME280;68371;42.630;23.192;2024-01-15T12:49:46;90945.94;;;4.94;58.54
64602;BME280;68371;42.630;23.192;2024-01-15T12:52:13;90962.41;;;5.30;58.21
64602;BME280;68371;42.630;23.192;2024-01-15T12:54:41;91110.41;;;6.20;59.85
64602;BME280;68371;42.630;23.192;2024-01-15T12:57:08;91014.41;;;5.58;59.30